Time;durP1;ratioP1;P1;durP2;ratioP2;P2;SDS_P1;SDS_P2;PMS_P1;PMS_P2;Temp;Humidity;BMP_temperature;BMP_pressure;BME280_temperature;BME280_humidity;BME280_pressure;Samples;Min_cycle;Max_cycle;Signal;HPM_P1;HPM_P2
2023/01/22 00:01:57;;;;;;;;;42.00;36.75;;;;;3.44;57.25;102691.91;4951075;28;46154;-52
2023/01/22 00:04:22;;;;;;;;;44.00;37.25;;;;;3.45;56.91;102691.97;4961668;28;45223;-53
2023/01/22 00:06:47;;;;;;;;;38.50;35.00;;;;;3.47;57.04;102681.63;4961753;28;45160;-50
2023/01/22 00:09:14;;;;;;;;;40.25;34.25;;;;;3.47;57.29;102689.44;4960787;28;45538;-52
2023/01/22 00:11:40;;;;;;;;;45.75;37.25;;;;;3.48;57.01;102689.50;4959127;28;46443;-53
2023/01/22 00:14:05;;;;;;;;;38.00;33.75;;;;;3.43;56.80;102678.00;4959390;28;45465;-53
2023/01/22 00:16:30;;;;;;;;;41.00;31.75;;;;;3.48;56.91;102681.69;4960433;28;45370;-50
2023/01/22 00:18:56;;;;;;;;;37.00;33.25;;;;;3.45;57.24;102680.66;4960145;28;45377;-51
2023/01/22 00:21:21;;;;;;;;;37.25;29.75;;;;;3.44;57.55;102677.19;4937484;28;46036;-52
2023/01/22 00:23:46;;;;;;;;;46.75;39.75;;;;;3.44;57.18;102671.97;4955122;28;45688;-50
2023/01/22 00:26:14;;;;;;;;;38.00;33.75;;;;;3.40;57.01;102673.53;4959243;28;45501;-52
2023/01/22 00:28:41;;;;;;;;;48.25;39.50;;;;;3.41;57.16;102671.84;4958902;28;45926;-53
2023/01/22 00:31:08;;;;;;;;;47.25;38.00;;;;;3.39;57.21;102673.47;4958910;28;46312;-53
2023/01/22 00:33:34;;;;;;;;;33.75;32.50;;;;;3.37;57.29;102667.31;4959576;28;45619;-53
2023/01/22 00:36:06;;;;;;;;;49.25;39.25;;;;;3.35;57.03;102668.97;4961537;28;45927;-52
2023/01/22 00:38:32;;;;;;;;;40.50;37.00;;;;;3.37;57.27;102667.31;4943788;28;45398;-50
2023/01/22 00:41:03;;;;;;;;;42.25;32.50;;;;;3.36;57.24;102665.56;4949565;28;47353;-52
2023/01/22 00:43:29;;;;;;;;;33.50;32.50;;;;;3.32;56.92;102661.00;4961004;28;45496;-53
2023/01/22 00:45:54;;;;;;;;;44.00;38.50;;;;;3.33;56.95;102668.88;4961188;28;45326;-50
2023/01/22 00:48:20;;;;;;;;;43.25;38.00;;;;;3.35;57.32;102674.16;4960913;28;45310;-53
2023/01/22 00:50:45;;;;;;;;;40.50;36.75;;;;;3.35;57.31;102674.16;4961130;28;46011;-51
2023/01/22 00:53:10;;;;;;;;;37.75;33.75;;;;;3.36;57.07;102670.75;4960945;28;45239;-53
2023/01/22 00:55:36;;;;;;;;;30.50;29.50;;;;;3.33;56.84;102671.47;4961314;28;45283;-49
2023/01/22 00:58:01;;;;;;;;;42.25;36.50;;;;;3.35;57.43;102664.63;4960686;28;45472;-51
2023/01/22 01:00:26;;;;;;;;;46.25;37.75;;;;;3.35;57.27;102655.97;4950638;28;45487;-48
2023/01/22 01:05:36;;;;;;;;;48.25;40.75;;;;;3.34;56.86;102656.78;4961222;28;45402;-52
2023/01/22 01:08:01;;;;;;;;;44.25;35.50;;;;;3.38;56.94;102659.59;4960364;28;45380;-52
2023/01/22 01:10:26;;;;;;;;;38.50;33.00;;;;;3.35;57.42;102648.19;4960806;28;46203;-49
2023/01/22 01:12:52;;;;;;;;;44.75;38.00;;;;;3.36;57.42;102648.22;4943172;28;45358;-51
2023/01/22 01:15:17;;;;;;;;;39.00;33.50;;;;;3.37;57.01;102642.22;4960703;28;45335;-52
2023/01/22 01:17:42;;;;;;;;;49.00;36.00;;;;;3.39;57.15;102650.97;4960643;28;45574;-51
2023/01/22 01:20:11;;;;;;;;;36.25;29.75;;;;;3.39;57.14;102663.09;4960506;28;45450;-53
2023/01/22 01:22:36;;;;;;;;;56.75;42.25;;;;;3.38;57.37;102657.00;4960607;28;45263;-52
2023/01/22 01:25:01;;;;;;;;;48.75;39.50;;;;;3.38;56.92;102661.28;4960943;28;45249;-53
2023/01/22 01:27:30;;;;;;;;;48.50;38.75;;;;;3.36;56.85;102662.94;4960363;28;45352;-53
2023/01/22 01:29:56;;;;;;;;;46.75;39.00;;;;;3.34;57.40;102670.66;4960163;28;47037;-53
2023/01/22 01:32:21;;;;;;;;;38.00;34.25;;;;;3.34;57.39;102672.38;4948411;28;45478;-53
2023/01/22 01:34:48;;;;;;;;;52.50;40.75;;;;;3.33;56.84;102670.59;4964336;28;45473;-51
2023/01/22 01:37:14;;;;;;;;;46.25;37.25;;;;;3.34;56.96;102675.84;4951253;28;45438;-51
2023/01/22 01:39:39;;;;;;;;;41.50;37.75;;;;;3.34;56.95;102678.44;4963760;28;45212;-49
2023/01/22 01:42:04;;;;;;;;;49.25;38.00;;;;;3.35;57.10;102667.25;4959367;28;45367;-49
2023/01/22 01:44:31;;;;;;;;;41.25;38.25;;;;;3.36;57.22;102673.34;4957706;28;45173;-48
2023/01/22 01:47:04;;;;;;;;;41.00;35.00;;;;;3.31;57.17;102669.63;4950959;28;45204;-50
2023/01/22 01:49:51;;;;;;;;;51.50;41.00;;;;;3.33;57.39;102673.19;4963724;28;47214;-53
2023/01/22 01:52:17;;;;;;;;;57.75;42.25;;;;;3.33;57.33;102668.00;4963831;28;45251;-52
2023/01/22 01:54:49;;;;;;;;;49.25;37.75;;;;;3.30;57.23;102660.06;4963796;28;45303;-52
2023/01/22 01:57:19;;;;;;;;;52.50;40.50;;;;;3.30;57.33;102657.47;4963826;28;45377;-52
2023/01/22 01:59:46;;;;;;;;;56.75;44.50;;;;;3.29;57.10;102655.69;4959799;28;45548;-53
2023/01/22 02:02:12;;;;;;;;;54.75;41.25;;;;;3.30;57.05;102652.28;4963036;28;45314;-52
2023/01/22 02:04:38;;;;;;;;;50.50;40.00;;;;;3.32;57.45;102661.00;4963323;28;45447;-50
2023/01/22 02:07:04;;;;;;;;;54.50;42.25;;;;;3.31;57.20;102649.75;4963343;28;45374;-50
2023/01/22 02:09:30;;;;;;;;;51.25;44.00;;;;;3.34;56.91;102655.06;4946869;28;47047;-52
2023/01/22 02:11:56;;;;;;;;;53.50;42.75;;;;;3.36;56.80;102663.84;4963162;28;45232;-50
2023/01/22 02:14:30;;;;;;;;;47.75;40.75;;;;;3.36;57.02;102657.75;4963191;28;45417;-52
2023/01/22 02:17:11;;;;;;;;;58.00;42.50;;;;;3.36;56.94;102656.03;4963052;28;45449;-50
2023/01/22 02:19:37;;;;;;;;;49.00;40.25;;;;;3.35;56.92;102663.78;4951966;28;46645;-50
2023/01/22 02:22:11;;;;;;;;;47.50;40.50;;;;;3.34;57.05;102669.78;4962608;28;45537;-52
2023/01/22 02:24:36;;;;;;;;;50.75;41.25;;;;;3.33;57.50;102662.78;4963371;28;45268;-52
2023/01/22 02:27:01;;;;;;;;;51.50;41.00;;;;;3.32;57.11;102669.72;4962714;28;45539;-52
2023/01/22 02:29:27;;;;;;;;;46.00;35.25;;;;;3.30;57.38;102666.13;4962783;28;45362;-53
2023/01/22 02:31:53;;;;;;;;;49.00;41.25;;;;;3.31;57.51;102661.81;4960168;28;45410;-52
2023/01/22 02:34:18;;;;;;;;;46.50;38.25;;;;;3.30;57.29;102660.06;4961666;28;45371;-50
2023/01/22 02:36:44;;;;;;;;;57.50;44.25;;;;;3.25;57.10;102655.53;4948427;28;45189;-53
2023/01/22 02:39:09;;;;;;;;;51.00;41.00;;;;;3.29;57.05;102655.69;4963190;28;45323;-49
2023/01/22 02:41:34;;;;;;;;;51.25;41.50;;;;;3.28;57.00;102659.97;4961481;28;45755;-50
2023/01/22 02:44:00;;;;;;;;;53.00;42.00;;;;;3.29;57.41;102650.47;4962511;28;45232;-53
2023/01/22 02:46:25;;;;;;;;;54.25;44.50;;;;;3.28;57.54;102657.38;4962712;28;45390;-51
2023/01/22 02:48:51;;;;;;;;;60.50;44.25;;;;;3.24;57.01;102653.75;4963120;28;45938;-49
2023/01/22 02:51:16;;;;;;;;;50.25;40.50;;;;;3.29;57.35;102663.47;4962867;28;45384;-52
2023/01/22 02:53:42;;;;;;;;;51.75;44.00;;;;;3.27;57.31;102655.63;4963274;28;45287;-53
2023/01/22 02:56:09;;;;;;;;;53.50;42.00;;;;;3.30;57.06;102673.94;4962487;28;45330;-52
2023/01/22 02:58:35;;;;;;;;;54.75;41.75;;;;;3.30;56.88;102663.53;4962884;28;46312;-51
2023/01/22 03:01:19;;;;;;;;;59.50;45.00;;;;;3.29;57.23;102656.56;4949325;28;45402;-51
2023/01/22 03:03:56;;;;;;;;;55.25;43.00;;;;;3.29;57.10;102661.75;4962831;28;45381;-50
2023/01/22 03:06:24;;;;;;;;;52.50;41.00;;;;;3.28;56.81;102656.50;4962610;28;45394;-53
2023/01/22 03:08:55;;;;;;;;;52.50;41.25;;;;;3.30;57.38;102647.06;4962342;28;46495;-52
2023/01/22 03:11:20;;;;;;;;;60.75;42.00;;;;;3.29;57.38;102651.38;4949710;28;45568;-51
2023/01/22 03:22:03;;;;;;;;;53.25;42.00;;;;;3.28;57.13;102661.69;4962070;28;45503;-52
2023/01/22 03:24:28;;;;;;;;;57.00;45.00;;;;;3.28;57.41;102653.91;4958173;28;45253;-52
2023/01/22 03:26:53;;;;;;;;;46.00;42.00;;;;;3.27;56.99;102644.31;4957060;28;45489;-51
2023/01/22 03:29:19;;;;;;;;;54.00;40.75;;;;;3.29;57.51;102645.28;4962163;28;45270;-51
2023/01/22 03:31:47;;;;;;;;;48.50;40.25;;;;;3.17;57.01;102625.72;4961842;28;45303;-53
2023/01/22 03:34:17;;;;;;;;;56.25;43.75;;;;;3.27;57.38;102650.41;4962593;28;45359;-51
2023/01/22 03:36:42;;;;;;;;;52.00;40.25;;;;;3.27;57.26;102649.50;4962181;28;45478;-49
2023/01/22 03:39:08;;;;;;;;;54.75;44.00;;;;;3.26;57.58;102646.03;4944747;28;47063;-51
2023/01/22 03:41:33;;;;;;;;;61.50;44.75;;;;;3.27;57.19;102642.63;4962002;28;45128;-50
2023/01/22 03:44:00;;;;;;;;;64.50;45.25;;;;;3.24;57.48;102642.47;4944833;28;45166;-52
2023/01/22 03:46:26;;;;;;;;;52.50;43.75;;;;;3.22;57.09;102645.00;4961703;28;45322;-53
2023/01/22 03:48:52;;;;;;;;;57.00;45.75;;;;;3.17;57.39;102643.00;4962085;28;46160;-52
2023/01/22 03:51:18;;;;;;;;;55.00;47.25;;;;;3.19;57.33;102655.22;4961917;28;45322;-52
2023/01/22 03:53:45;;;;;;;;;61.75;44.50;;;;;3.15;57.70;102644.66;4962307;28;45358;-52
2023/01/22 03:56:13;;;;;;;;;52.50;42.00;;;;;3.18;57.46;102653.47;4960769;28;45334;-49
2023/01/22 03:58:39;;;;;;;;;60.00;45.50;;;;;3.17;57.26;102656.88;4961891;28;46038;-51
2023/01/22 04:01:07;;;;;;;;;51.00;42.25;;;;;3.17;57.38;102656.88;4948321;28;45249;-50
2023/01/22 04:03:34;;;;;;;;;54.00;41.75;;;;;3.19;57.00;102659.56;4961940;28;45346;-51
2023/01/22 04:05:59;;;;;;;;;57.00;42.00;;;;;3.15;57.47;102652.44;4961645;28;45561;-50
2023/01/22 04:08:27;;;;;;;;;51.00;41.75;;;;;3.20;57.18;102657.03;4961423;28;45358;-52
2023/01/22 04:10:53;;;;;;;;;53.00;38.25;;;;;3.22;57.55;102652.78;4961543;28;45247;-52
2023/01/22 04:13:18;;;;;;;;;52.50;42.50;;;;;3.21;57.32;102642.34;4944386;28;45446;-53
2023/01/22 04:15:44;;;;;;;;;48.25;40.00;;;;;3.19;57.75;102641.38;4961466;28;45489;-51
2023/01/22 04:18:10;;;;;;;;;54.50;42.00;;;;;3.20;57.26;102645.75;4961558;28;46374;-53
2023/01/22 04:20:35;;;;;;;;;47.00;39.50;;;;;3.17;57.58;102640.41;4961189;28;45425;-52
2023/01/22 04:23:01;;;;;;;;;54.50;42.75;;;;;3.16;57.57;102629.13;4961673;28;45228;-52
2023/01/22 04:25:26;;;;;;;;;52.25;41.75;;;;;3.14;57.48;102624.69;4961410;28;45426;-50
2023/01/22 04:27:51;;;;;;;;;56.00;43.75;;;;;3.09;57.75;102633.16;4961054;28;46742;-52
2023/01/22 04:30:17;;;;;;;;;48.00;39.75;;;;;3.08;57.32;102620.97;4959648;28;45221;-52
2023/01/22 04:32:43;;;;;;;;;45.50;38.25;;;;;3.06;57.57;102633.00;4961563;28;45311;-51
2023/01/22 04:35:08;;;;;;;;;47.25;38.75;;;;;3.06;56.88;102629.50;4961171;28;45389;-52
2023/01/22 04:37:34;;;;;;;;;52.25;39.25;;;;;3.04;57.53;102631.13;4961267;28;46024;-52
2023/01/22 04:39:59;;;;;;;;;50.25;41.00;;;;;3.01;57.31;102629.28;4961029;28;45334;-49
2023/01/22 04:42:26;;;;;;;;;52.75;43.00;;;;;2.99;57.02;102624.84;4961366;28;45425;-54
2023/01/22 04:44:51;;;;;;;;;51.75;39.75;;;;;2.97;57.04;102634.25;4960815;28;45446;-52
2023/01/22 04:47:17;;;;;;;;;50.00;39.00;;;;;2.93;57.49;102630.63;4961193;28;45343;-53
2023/01/22 04:49:42;;;;;;;;;41.25;30.00;;;;;2.90;57.47;102626.16;4961080;28;45318;-54
2023/01/22 04:52:07;;;;;;;;;52.25;38.50;;;;;2.85;57.54;102619.88;4961322;28;45280;-52
2023/01/22 04:54:33;;;;;;;;;46.00;37.25;;;;;2.86;57.48;102623.38;4961027;28;45220;-53
2023/01/22 04:56:58;;;;;;;;;39.50;38.25;;;;;2.84;57.07;102623.28;4943476;28;45968;-53
2023/01/22 04:59:23;;;;;;;;;41.25;38.50;;;;;2.77;57.36;102618.63;4959201;28;45484;-52
2023/01/22 05:01:51;;;;;;;;;44.75;35.50;;;;;2.80;57.68;102620.47;4932290;28;45237;-52
2023/01/22 05:04:17;;;;;;;;;42.25;36.00;;;;;2.76;57.28;102606.47;4960793;28;45595;-53
2023/01/22 05:06:42;;;;;;;;;42.75;37.25;;;;;2.77;57.47;102608.25;4960685;28;46273;-51
2023/01/22 05:09:07;;;;;;;;;39.50;37.00;;;;;2.75;57.47;102610.78;4960433;28;45324;-50
2023/01/22 05:11:33;;;;;;;;;42.50;28.75;;;;;2.73;57.19;102598.50;4961082;28;45285;-53
2023/01/22 05:13:58;;;;;;;;;44.25;37.25;;;;;2.71;57.32;102598.44;4960733;28;45514;-50
2023/01/22 05:16:24;;;;;;;;;46.25;33.00;;;;;2.72;56.80;102596.75;4960743;28;45365;-51
2023/01/22 05:18:49;;;;;;;;;44.00;38.25;;;;;2.69;56.91;102599.19;4960633;28;45338;-52
2023/01/22 05:21:15;;;;;;;;;36.75;36.00;;;;;2.67;57.37;102593.94;4960703;28;45317;-52
2023/01/22 05:23:42;;;;;;;;;43.75;35.75;;;;;2.66;57.13;102588.66;4960518;28;45553;-52
2023/01/22 05:26:07;;;;;;;;;37.75;31.50;;;;;2.64;56.80;102591.19;4960507;28;46329;-50
2023/01/22 05:28:33;;;;;;;;;38.25;32.75;;;;;2.63;57.38;102585.91;4960359;28;45330;-50
2023/01/22 05:30:58;;;;;;;;;40.50;33.50;;;;;2.60;57.30;102587.56;4960503;28;45223;-51
2023/01/22 05:33:23;;;;;;;;;40.00;33.50;;;;;2.59;57.40;102582.28;4957577;28;45316;-49
2023/01/22 05:35:56;;;;;;;;;34.75;30.50;;;;;2.56;57.20;102585.59;4960529;28;45410;-53
2023/01/22 05:38:22;;;;;;;;;39.75;31.50;;;;;2.56;57.11;102595.13;4960027;28;45422;-52
2023/01/22 05:40:47;;;;;;;;;42.00;32.50;;;;;2.55;57.03;102591.66;4960470;28;45360;-51
2023/01/22 05:43:12;;;;;;;;;41.25;30.50;;;;;2.55;57.03;102589.06;4959954;28;45518;-52
2023/01/22 05:45:38;;;;;;;;;51.25;40.75;;;;;2.54;57.50;102595.06;4959937;28;45603;-50
2023/01/22 05:48:03;;;;;;;;;40.00;33.50;;;;;2.54;57.39;102587.25;4960110;28;45301;-49
2023/01/22 05:50:29;;;;;;;;;39.00;34.00;;;;;2.56;57.29;102590.81;4960406;28;45417;-49
2023/01/22 05:52:54;;;;;;;;;41.75;35.50;;;;;2.56;56.85;102588.22;4960014;28;45290;-52
2023/01/22 05:55:20;;;;;;;;;36.50;34.00;;;;;2.56;57.56;102587.34;4959942;28;45920;-51
2023/01/22 05:57:46;;;;;;;;;35.00;29.00;;;;;2.57;57.06;102594.31;4942156;28;45213;-53
2023/01/22 06:00:11;;;;;;;;;35.50;28.75;;;;;2.55;57.19;102596.84;4954651;28;45389;-50
2023/01/22 06:02:37;;;;;;;;;39.75;33.00;;;;;2.55;57.15;102596.84;4957701;28;45914;-53
2023/01/22 06:05:02;;;;;;;;;32.75;31.00;;;;;2.58;57.52;102590.91;4940954;28;46185;-52
2023/01/22 06:07:29;;;;;;;;;36.50;30.25;;;;;2.56;57.51;102601.19;4945482;28;46179;-51
2023/01/22 06:09:54;;;;;;;;;44.75;36.25;;;;;2.59;57.55;102596.16;4959750;28;45452;-53
2023/01/22 06:12:20;;;;;;;;;38.00;34.25;;;;;2.61;57.82;102604.00;4941584;28;45344;-51
2023/01/22 06:14:45;;;;;;;;;39.75;33.50;;;;;2.62;57.27;102598.00;4959427;28;46227;-50
2023/01/22 06:17:10;;;;;;;;;48.25;36.00;;;;;2.64;57.52;102601.59;4960083;28;45315;-52
2023/01/22 06:19:36;;;;;;;;;37.25;32.00;;;;;2.65;57.62;102586.88;4961272;28;45394;-51
2023/01/22 06:22:01;;;;;;;;;37.75;25.25;;;;;2.70;57.84;102601.84;4962827;28;45263;-52
2023/01/22 06:24:27;;;;;;;;;45.75;34.25;;;;;2.73;57.75;102598.50;4963308;28;46833;-52
2023/01/22 06:26:52;;;;;;;;;36.75;33.00;;;;;2.75;57.96;102602.06;4963152;28;45325;-52
2023/01/22 06:29:17;;;;;;;;;36.50;31.50;;;;;2.75;57.54;102600.41;4945981;28;45374;-52
2023/01/22 06:31:43;;;;;;;;;45.50;37.50;;;;;2.79;57.75;102604.00;4962891;28;45262;-52
2023/01/22 06:34:08;;;;;;;;;42.75;32.25;;;;;2.80;57.61;102603.19;4963060;28;46111;-48
2023/01/22 06:36:34;;;;;;;;;45.00;38.25;;;;;2.83;57.85;102603.34;4963130;28;45555;-50
2023/01/22 06:38:59;;;;;;;;;30.75;27.50;;;;;2.84;57.88;102605.09;4945852;28;45544;-49
2023/01/22 06:41:24;;;;;;;;;40.50;32.75;;;;;2.84;57.92;102596.44;4962974;28;45480;-50
2023/01/22 06:43:50;;;;;;;;;38.25;33.75;;;;;2.84;57.33;102596.44;4945428;28;47049;-52
2023/01/22 06:46:15;;;;;;;;;44.00;32.50;;;;;2.87;57.47;102599.19;4962664;28;45219;-49
2023/01/22 06:48:42;;;;;;;;;36.25;33.75;;;;;2.85;57.58;102601.69;4963111;28;45337;-49
2023/01/22 06:51:08;;;;;;;;;41.25;34.25;;;;;2.87;57.77;102610.47;4962824;28;45350;-49
2023/01/22 06:53:34;;;;;;;;;43.50;35.50;;;;;2.86;57.43;102600.88;4962973;28;45445;-52
2023/01/22 06:56:00;;;;;;;;;39.50;34.00;;;;;2.85;57.83;102606.88;4962583;28;45460;-49
2023/01/22 06:58:25;;;;;;;;;42.25;34.25;;;;;2.85;57.86;102612.09;4963000;28;45343;-49
2023/01/22 07:00:50;;;;;;;;;57.25;42.75;;;;;2.85;57.29;102616.41;4931946;28;45382;-51
2023/01/22 07:03:16;;;;;;;;;50.50;39.00;;;;;2.82;57.93;102617.16;4962564;28;46086;-51
2023/01/22 07:05:41;;;;;;;;;58.00;41.25;;;;;2.81;57.40;102617.06;4962496;28;45365;-50
2023/01/22 07:08:06;;;;;;;;;45.50;38.00;;;;;2.79;57.40;102622.19;4962747;28;45475;-51
2023/01/22 07:10:32;;;;;;;;;40.75;37.75;;;;;2.76;57.75;102616.84;4962445;28;45496;-48
2023/01/22 07:12:58;;;;;;;;;43.75;38.00;;;;;2.79;57.34;102624.78;4962489;28;46340;-53
2023/01/22 07:15:24;;;;;;;;;46.50;39.25;;;;;2.78;57.91;102625.63;4962303;28;45270;-51
2023/01/22 07:17:51;;;;;;;;;49.75;40.50;;;;;2.75;58.00;102621.16;4962868;28;45240;-52
2023/01/22 07:20:16;;;;;;;;;48.00;38.75;;;;;2.76;57.87;102625.50;4962308;28;45236;-50
2023/01/22 07:22:42;;;;;;;;;51.25;36.75;;;;;2.74;58.07;102621.97;4962417;28;45341;-53
2023/01/22 07:25:07;;;;;;;;;43.50;36.25;;;;;2.73;57.48;102630.56;4962502;28;45558;-51
2023/01/22 07:27:33;;;;;;;;;45.50;35.75;;;;;2.71;58.09;102628.72;4962407;28;45349;-52
2023/01/22 07:29:59;;;;;;;;;40.25;34.75;;;;;2.70;58.10;102638.19;4944469;28;45364;-48
2023/01/22 07:32:24;;;;;;;;;43.25;34.25;;;;;2.68;58.35;102639.84;4962395;28;46400;-49
2023/01/22 07:34:50;;;;;;;;;40.50;34.50;;;;;2.69;58.10;102649.44;4962168;28;45257;-48
2023/01/22 07:37:15;;;;;;;;;47.25;39.00;;;;;2.69;58.29;102656.31;4962369;28;45346;-51
2023/01/22 07:39:40;;;;;;;;;39.00;31.75;;;;;2.68;58.05;102658.03;4961966;28;45315;-50
2023/01/22 07:42:05;;;;;;;;;45.25;33.75;;;;;2.67;57.91;102653.63;4960525;28;45456;-50
2023/01/22 07:44:31;;;;;;;;;47.75;39.00;;;;;2.69;58.28;102665.00;4962086;28;45406;-51
2023/01/22 07:46:56;;;;;;;;;42.25;35.25;;;;;2.70;57.78;102666.75;4961879;28;45301;-48
2023/01/22 07:49:21;;;;;;;;;42.25;35.75;;;;;2.70;58.22;102666.75;4961951;28;45338;-51
2023/01/22 07:51:47;;;;;;;;;47.25;39.50;;;;;2.72;58.43;102657.34;4961897;28;45403;-50
2023/01/22 07:54:12;;;;;;;;;43.75;35.25;;;;;2.75;57.93;102659.19;4961970;28;45279;-52
2023/01/22 07:56:37;;;;;;;;;46.50;36.50;;;;;2.71;58.31;102654.69;4962080;28;45245;-50
2023/01/22 07:59:04;;;;;;;;;59.00;41.00;;;;;2.71;58.21;102671.13;4961653;28;45504;-60
2023/01/22 08:01:30;;;;;;;;;42.00;35.00;;;;;2.73;58.31;102676.41;4948556;28;46042;-48
2023/01/22 08:03:56;;;;;;;;;43.25;34.75;;;;;2.74;58.39;102660.94;4961839;28;45240;-53
2023/01/22 08:06:22;;;;;;;;;46.25;38.75;;;;;2.73;58.51;102673.81;4961823;28;45342;-51
2023/01/22 08:08:48;;;;;;;;;48.25;38.75;;;;;2.70;58.23;102664.16;4961592;28;45493;-50
2023/01/22 08:11:13;;;;;;;;;43.50;38.75;;;;;2.73;57.99;102659.13;4961420;28;46207;-48
2023/01/22 08:13:39;;;;;;;;;48.50;38.50;;;;;2.73;58.23;102671.22;4961713;28;45353;-46
2023/01/22 08:16:05;;;;;;;;;43.00;38.00;;;;;2.72;58.09;102672.06;4961476;28;45267;-51
2023/01/22 08:18:30;;;;;;;;;42.50;35.75;;;;;2.71;58.77;102678.94;4961714;28;45368;-49
2023/01/22 08:21:00;;;;;;;;;49.75;41.50;;;;;2.68;58.72;102667.50;4961173;28;47193;-49
2023/01/22 08:23:25;;;;;;;;;48.00;39.75;;;;;2.72;58.77;102666.84;4961266;28;45227;-46
2023/01/22 08:25:50;;;;;;;;;53.00;40.25;;;;;2.73;58.42;102677.31;4961694;28;45441;-50
2023/01/22 08:28:16;;;;;;;;;51.75;41.25;;;;;2.73;58.63;102686.78;4961160;28;45224;-49
2023/01/22 08:30:41;;;;;;;;;43.25;34.25;;;;;2.75;58.68;102693.88;4943703;28;46763;-50
2023/01/22 08:33:07;;;;;;;;;41.75;35.75;;;;;2.78;58.42;102687.94;4961509;28;45291;-47
2023/01/22 08:35:32;;;;;;;;;49.75;40.00;;;;;2.80;58.93;102690.59;4944076;28;45165;-52
2023/01/22 08:37:59;;;;;;;;;47.50;35.25;;;;;2.84;58.94;102695.13;4961216;28;45519;-49
2023/01/22 08:40:24;;;;;;;;;46.50;34.75;;;;;2.87;58.69;102690.97;4949428;28;46200;-51
2023/01/22 08:42:51;;;;;;;;;40.00;38.75;;;;;2.89;58.65;102697.13;4960489;28;45313;-52
2023/01/22 08:45:16;;;;;;;;;39.00;36.25;;;;;2.92;58.51;102692.09;4956796;28;45361;-52
2023/01/22 08:47:41;;;;;;;;;47.00;36.50;;;;;2.96;58.69;102694.84;4937981;28;45473;-48
2023/01/22 08:50:07;;;;;;;;;42.00;38.00;;;;;2.98;58.71;102696.69;4961052;28;46293;-50
2023/01/22 08:52:33;;;;;;;;;37.00;34.25;;;;;3.02;58.35;102695.09;4961102;28;45243;-49
2023/01/22 08:54:58;;;;;;;;;50.75;38.25;;;;;3.03;58.88;102717.69;4961385;28;45224;-52
2023/01/22 08:57:23;;;;;;;;;42.00;35.00;;;;;3.06;58.64;102702.25;4961045;28;45264;-52
2023/01/22 08:59:49;;;;;;;;;47.75;37.25;;;;;3.07;58.96;102704.03;4955540;28;45235;-49
2023/01/22 09:02:14;;;;;;;;;45.25;34.75;;;;;3.09;58.91;102705.91;4953207;28;45230;-50
2023/01/22 09:04:40;;;;;;;;;39.25;32.50;;;;;3.10;58.69;102706.78;4957913;28;45752;-53
2023/01/22 09:07:06;;;;;;;;;50.50;38.75;;;;;3.12;58.98;102710.34;4960311;28;45266;-51
2023/01/22 09:09:32;;;;;;;;;40.75;34.75;;;;;3.10;58.65;102696.38;4960358;28;45338;-48
2023/01/22 09:11:57;;;;;;;;;45.50;37.25;;;;;3.15;58.96;102697.50;4960441;28;45221;-51
2023/01/22 09:14:22;;;;;;;;;52.25;39.00;;;;;3.15;58.87;102700.09;4960694;28;45399;-51
2023/01/22 09:16:48;;;;;;;;;47.75;35.75;;;;;3.17;58.68;102702.75;4955999;28;45354;-52
2023/01/22 09:19:13;;;;;;;;;51.50;38.25;;;;;3.19;58.48;102696.81;4958809;28;45377;-49
2023/01/22 09:21:39;;;;;;;;;44.25;38.00;;;;;3.17;58.40;102693.28;4960446;28;45458;-49
2023/01/22 09:24:05;;;;;;;;;35.00;31.25;;;;;3.22;59.01;102699.56;4960325;28;45694;-51
2023/01/22 09:26:31;;;;;;;;;41.25;28.50;;;;;3.24;58.99;102692.72;4960307;28;45749;-50
2023/01/22 09:28:59;;;;;;;;;46.50;38.25;;;;;3.27;59.02;102693.69;4960120;28;46113;-52
2023/01/22 09:31:25;;;;;;;;;43.00;35.75;;;;;3.27;58.57;102684.22;4942623;28;45460;-53
2023/01/22 09:33:50;;;;;;;;;31.25;25.50;;;;;3.29;58.97;102697.25;4960037;28;45251;-51
2023/01/22 09:36:16;;;;;;;;;32.00;31.00;;;;;3.29;59.05;102700.75;4958512;28;45374;-49
2023/01/22 09:38:41;;;;;;;;;43.50;36.75;;;;;3.29;58.77;102710.25;4958719;28;46173;-51
2023/01/22 09:41:25;;;;;;;;;36.50;35.25;;;;;3.31;58.66;102700.81;4959066;28;45306;-51
2023/01/22 09:43:59;;;;;;;;;40.25;33.00;;;;;3.35;58.90;102705.34;4960215;28;45322;-51
2023/01/22 09:46:35;;;;;;;;;37.50;32.75;;;;;3.37;58.54;102706.28;4959506;28;45522;-51
2023/01/22 09:49:11;;;;;;;;;42.75;32.25;;;;;3.38;59.00;102710.69;4960518;28;46132;-49
2023/01/22 09:51:36;;;;;;;;;47.00;37.25;;;;;3.39;58.95;102708.16;4960429;28;45423;-50
2023/01/22 09:54:06;;;;;;;;;48.00;37.75;;;;;3.45;58.49;102723.16;4960648;28;45258;-52
2023/01/22 09:56:39;;;;;;;;;50.25;40.25;;;;;3.41;58.74;102718.63;4950844;28;45336;-52
2023/01/22 09:59:06;;;;;;;;;40.00;34.50;;;;;3.49;58.77;102722.47;4963524;28;45323;-51
2023/01/22 10:01:33;;;;;;;;;43.50;37.50;;;;;3.49;59.19;102722.47;4933161;28;45334;-49
2023/01/22 10:04:04;;;;;;;;;34.00;31.25;;;;;3.54;58.99;102728.78;4963652;28;45203;-49
2023/01/22 10:06:30;;;;;;;;;43.00;34.00;;;;;3.58;58.96;102725.53;4950896;28;45380;-50
2023/01/22 10:09:12;;;;;;;;;39.50;33.00;;;;;3.60;59.13;102727.28;4945892;28;45682;-49
2023/01/22 10:11:38;;;;;;;;;31.50;27.25;;;;;3.61;58.99;102735.16;4945937;28;45365;-52
2023/01/22 10:14:13;;;;;;;;;35.00;31.00;;;;;3.62;59.51;102726.53;4946287;28;45587;-52
2023/01/22 10:16:39;;;;;;;;;39.00;34.50;;;;;3.66;59.22;102735.34;4945929;28;45466;-52
2023/01/22 10:19:27;;;;;;;;;42.25;34.25;;;;;3.67;59.19;102722.44;4963062;28;45555;-53
2023/01/22 10:22:10;;;;;;;;;40.25;35.00;;;;;3.68;59.07;102724.22;4946223;28;45289;-50
2023/01/22 10:24:35;;;;;;;;;34.25;31.00;;;;;3.69;59.02;102714.72;4963450;28;45393;-52
2023/01/22 10:27:11;;;;;;;;;40.75;34.50;;;;;3.72;59.26;102714.84;4962956;28;45508;-51
2023/01/22 10:29:37;;;;;;;;;39.50;32.75;;;;;3.72;58.83;102709.63;4945532;28;46982;-53
2023/01/22 10:32:24;;;;;;;;;41.25;32.50;;;;;3.71;58.70;102711.38;4962979;28;45289;-50
2023/01/22 10:35:10;;;;;;;;;38.75;31.25;;;;;3.73;59.08;102709.69;4963118;28;45239;-52
2023/01/22 10:37:46;;;;;;;;;37.00;36.25;;;;;3.74;59.32;102708.88;4963465;28;45333;-51
2023/01/22 10:40:34;;;;;;;;;40.75;31.00;;;;;3.78;58.84;102720.31;4962787;28;46033;-52
2023/01/22 10:43:07;;;;;;;;;38.25;31.00;;;;;3.81;58.77;102715.28;4962819;28;45267;-55
2023/01/22 10:45:32;;;;;;;;;32.25;28.25;;;;;3.83;58.65;102723.16;4963128;28;45318;-49
2023/01/22 10:48:13;;;;;;;;;35.50;31.50;;;;;3.83;58.77;102724.03;4962940;28;45411;-52
2023/01/22 10:50:39;;;;;;;;;36.50;30.75;;;;;3.84;59.18;102733.59;4962881;28;45590;-49
2023/01/22 10:53:17;;;;;;;;;37.00;34.00;;;;;3.88;59.14;102727.72;4945440;28;45477;-53
2023/01/22 10:55:50;;;;;;;;;39.25;32.75;;;;;3.92;59.11;102726.16;4963157;28;45543;-52
2023/01/22 10:58:17;;;;;;;;;36.75;34.25;;;;;3.95;58.91;102720.19;4950951;28;45535;-58
2023/01/22 11:00:42;;;;;;;;;47.00;34.75;;;;;3.96;58.90;102715.09;4950392;28;46519;-50
2023/01/22 11:03:36;;;;;;;;;30.25;26.50;;;;;3.98;58.77;102717.75;4961943;28;45361;-50
2023/01/22 11:06:34;;;;;;;;;39.25;30.25;;;;;3.98;58.63;102709.94;4960669;28;45421;-52
2023/01/22 11:09:29;;;;;;;;;36.75;31.50;;;;;4.02;58.77;102704.91;4955410;28;45369;-50
2023/01/22 11:12:27;;;;;;;;;33.50;27.75;;;;;3.98;59.17;102713.41;4962511;28;47223;-49
2023/01/22 11:15:11;;;;;;;;;39.25;32.50;;;;;4.05;59.24;102701.56;4932317;28;45447;-50
2023/01/22 11:17:41;;;;;;;;;29.00;26.75;;;;;4.04;59.14;102699.81;4962595;28;45446;-50
2023/01/22 11:20:23;;;;;;;;;35.50;26.75;;;;;4.07;59.09;102703.44;4962476;28;45240;-48
2023/01/22 11:23:16;;;;;;;;;34.25;30.75;;;;;4.10;58.77;102709.56;4951678;28;46292;-50
2023/01/22 11:25:54;;;;;;;;;29.25;27.75;;;;;4.13;58.74;102708.00;4962348;28;45377;-48
2023/01/22 11:28:40;;;;;;;;;37.25;31.50;;;;;4.17;59.11;102699.50;4958772;28;45363;-48
2023/01/22 11:31:18;;;;;;;;;42.25;28.25;;;;;4.19;58.72;102692.66;4962122;28;45394;-51